createdAt,value
2023-04-18T00:00:33.830Z,18.08
2023-04-18T00:03:03.892Z,17.30
2023-04-18T00:05:32.212Z,18.55
2023-04-18T00:08:01.184Z,17.33
2023-04-18T00:10:28.865Z,18.10
2023-04-18T00:12:58.033Z,18.10
2023-04-18T00:15:25.823Z,18.25
2023-04-18T00:17:56.516Z,18.50
2023-04-18T00:20:26.607Z,18.30
2023-04-18T00:22:54.972Z,18.10
2023-04-18T00:25:23.965Z,17.55
2023-04-18T00:27:51.573Z,17.70
2023-04-18T00:30:19.231Z,17.85
2023-04-18T00:32:46.860Z,17.38
2023-04-18T00:35:14.520Z,18.60
2023-04-18T00:37:42.191Z,19.35
2023-04-18T00:40:10.881Z,18.02
2023-04-18T00:42:39.853Z,19.13
2023-04-18T00:45:08.254Z,18.83
2023-04-18T00:47:36.182Z,18.63
2023-04-18T00:50:04.380Z,18.95
2023-04-18T00:52:33.759Z,19.27
2023-04-18T00:55:01.399Z,17.95
2023-04-18T00:57:29.015Z,19.55
2023-04-18T00:59:58.124Z,18.55
2023-04-18T01:02:26.481Z,18.75
2023-04-18T01:04:54.277Z,19.63
2023-04-18T01:07:21.873Z,19.40
2023-04-18T01:09:49.564Z,18.77
2023-04-18T01:12:17.133Z,19.08
2023-04-18T01:14:44.752Z,19.77
2023-04-18T01:17:13.693Z,18.85
2023-04-18T01:19:41.514Z,20.52
2023-04-18T01:22:09.820Z,20.50
2023-04-18T01:24:39.207Z,19.98
2023-04-18T01:27:06.868Z,20.83
2023-04-18T01:29:34.483Z,20.35
2023-04-18T01:32:02.635Z,20.95
2023-04-18T01:34:30.251Z,21.08
2023-04-18T01:36:57.890Z,20.02
2023-04-18T01:39:25.541Z,19.75
2023-04-18T01:41:54.511Z,19.60
2023-04-18T01:44:22.089Z,19.13
2023-04-18T01:46:49.803Z,20.67
2023-04-18T01:49:17.549Z,19.80
2023-04-18T01:51:45.104Z,20.67
2023-04-18T01:54:12.888Z,20.63
2023-04-18T01:56:40.621Z,20.85
2023-04-18T01:59:09.561Z,20.70
2023-04-18T02:01:37.148Z,20.58
2023-04-18T02:04:04.790Z,21.58
2023-04-18T02:06:32.433Z,22.02
2023-04-18T02:09:00.066Z,22.67
2023-04-18T02:11:27.674Z,22.80
2023-04-18T02:13:55.284Z,22.20
2023-04-18T02:16:24.316Z,21.70
2023-04-18T02:18:52.879Z,23.38
2023-04-18T02:21:21.771Z,21.33
2023-04-18T02:23:49.644Z,23.02
2023-04-18T02:26:17.276Z,23.27
2023-04-18T02:28:44.994Z,21.98
2023-04-18T02:31:14.905Z,23.80
2023-04-18T02:33:44.383Z,22.05
2023-04-18T02:36:13.554Z,22.55
2023-04-18T02:38:41.213Z,25.30
2023-04-18T02:41:08.915Z,24.75
2023-04-18T02:43:36.591Z,23.70
2023-04-18T02:46:04.346Z,24.27
2023-04-18T02:48:32.113Z,23.42
2023-04-18T02:51:04.626Z,23.85
2023-04-18T02:53:32.346Z,24.73
2023-04-18T02:56:00.451Z,22.75
2023-04-18T02:58:28.589Z,25.45
2023-04-18T03:00:57.564Z,25.80
2023-04-18T03:03:25.295Z,25.90
2023-04-18T03:05:53.031Z,25.40
2023-04-18T03:08:22.041Z,24.55
2023-04-18T03:10:49.673Z,24.20
2023-04-18T03:13:17.532Z,26.08
2023-04-18T03:15:45.241Z,24.52
2023-04-18T03:18:13.196Z,25.98
2023-04-18T03:20:41.009Z,27.92
2023-04-18T03:23:08.680Z,25.65
2023-04-18T03:25:37.820Z,27.20
2023-04-18T03:28:05.858Z,26.40
2023-04-18T03:30:33.605Z,25.77
2023-04-18T03:33:02.814Z,25.77
2023-04-18T03:35:30.695Z,25.50
2023-04-18T03:37:58.357Z,25.80
2023-04-18T03:40:26.003Z,25.13
2023-04-18T03:42:55.009Z,27.05
2023-04-18T03:45:22.674Z,25.48
2023-04-18T03:47:50.362Z,24.95
2023-04-18T03:50:18.093Z,26.35
2023-04-18T03:52:45.868Z,26.50
2023-04-18T03:55:13.638Z,26.83
2023-04-18T03:57:41.404Z,27.85
2023-04-18T04:00:12.645Z,27.60
2023-04-18T04:02:40.940Z,26.43
2023-04-18T04:05:09.170Z,27.77
2023-04-18T04:07:37.068Z,28.77
2023-04-18T04:10:05.137Z,27.13
2023-04-18T04:12:32.754Z,27.48
2023-04-18T04:15:00.881Z,28.55
2023-04-18T04:17:29.942Z,26.27
2023-04-18T04:19:57.581Z,27.98
2023-04-18T04:22:25.733Z,28.70
2023-04-18T04:24:53.372Z,30.60
2023-04-18T04:27:21.015Z,26.83
2023-04-18T04:29:49.703Z,29.73
2023-04-18T04:32:17.909Z,30.27
2023-04-18T04:34:47.399Z,28.80
2023-04-18T04:37:15.262Z,29.05
2023-04-18T04:39:42.882Z,27.65
2023-04-18T04:42:12.216Z,28.40
2023-04-18T04:44:41.609Z,28.40
2023-04-18T04:47:15.495Z,31.10
2023-04-18T04:49:43.148Z,30.50
2023-04-18T04:52:12.151Z,29.15
2023-04-18T04:54:40.025Z,30.55
2023-04-18T04:57:07.725Z,30.30
2023-04-18T04:59:35.550Z,31.25
2023-04-18T05:02:03.393Z,32.20
2023-04-18T05:04:31.262Z,31.08
2023-04-18T05:06:58.983Z,30.92
2023-04-18T05:09:28.030Z,32.15
2023-04-18T05:11:55.699Z,30.63
2023-04-18T05:14:23.902Z,31.00
2023-04-18T05:16:51.654Z,33.20
2023-04-18T05:19:19.327Z,31.73
2023-04-18T05:21:46.964Z,31.20
2023-04-18T05:24:14.798Z,30.55
2023-04-18T05:26:44.264Z,31.30
2023-04-18T05:29:11.912Z,31.08
2023-04-18T05:31:39.537Z,31.73
2023-04-18T05:34:07.204Z,32.63
2023-04-18T05:36:34.822Z,29.60
2023-04-18T05:39:02.471Z,30.25
2023-04-18T05:41:30.111Z,31.88
2023-04-18T05:44:05.426Z,31.75
2023-04-18T05:46:33.729Z,35.35
2023-04-18T05:49:01.525Z,33.95
2023-04-18T05:51:29.440Z,32.40
2023-04-18T05:53:57.086Z,33.45
2023-04-18T05:56:24.732Z,31.42
2023-04-18T05:58:52.417Z,30.52
2023-04-18T06:01:21.507Z,31.48
2023-04-18T06:03:49.457Z,33.03
2023-04-18T06:06:17.351Z,33.50
2023-04-18T06:08:44.988Z,34.22
2023-04-18T06:11:14.922Z,32.28
2023-04-18T06:13:42.655Z,32.75
2023-04-18T06:16:10.358Z,31.58
2023-04-18T06:18:39.511Z,33.40
2023-04-18T06:21:07.344Z,32.97
2023-04-18T06:23:35.010Z,32.00
2023-04-18T06:26:02.774Z,31.70
2023-04-18T06:28:30.399Z,33.15
2023-04-18T06:30:58.065Z,31.25
2023-04-18T06:33:25.825Z,30.73
2023-04-18T06:35:54.859Z,31.15
2023-04-18T06:38:22.537Z,31.75
2023-04-18T06:40:50.204Z,31.20
2023-04-18T06:43:17.830Z,30.48
2023-04-18T06:45:45.503Z,30.00
2023-04-18T06:48:13.227Z,31.73
2023-04-18T06:50:40.931Z,32.38
2023-04-18T06:53:09.950Z,30.33
2023-04-18T06:55:37.675Z,30.40
2023-04-18T06:58:05.820Z,30.75
2023-04-18T07:00:33.455Z,31.17
2023-04-18T07:03:02.038Z,31.25
2023-04-18T07:05:29.851Z,30.15
2023-04-18T07:07:57.529Z,28.90
2023-04-18T07:10:26.636Z,28.80
2023-04-18T07:12:54.310Z,29.98
2023-04-18T07:15:22.406Z,31.77
2023-04-18T07:17:50.158Z,32.00
2023-04-18T07:20:17.859Z,29.75
2023-04-18T07:22:45.966Z,30.48
2023-04-18T07:25:13.619Z,30.73
2023-04-18T07:27:42.699Z,29.35
2023-04-18T07:30:11.227Z,29.25
2023-04-18T07:32:39.180Z,28.02
2023-04-18T07:35:07.783Z,26.83
2023-04-18T07:37:35.450Z,29.02
2023-04-18T07:40:04.106Z,27.75
2023-04-18T07:42:31.804Z,26.85
2023-04-18T07:45:00.797Z,26.08
2023-04-18T07:47:30.607Z,30.35
2023-04-18T07:49:59.255Z,28.25
2023-04-18T07:52:27.019Z,28.90
2023-04-18T07:54:54.622Z,28.52
2023-04-18T07:57:22.266Z,27.02
2023-04-18T07:59:53.676Z,27.25
2023-04-18T08:02:22.881Z,27.17
2023-04-18T08:04:52.046Z,26.48
2023-04-18T08:07:20.034Z,27.55
2023-04-18T08:09:48.217Z,25.30
2023-04-18T08:12:15.894Z,26.13
2023-04-18T08:14:43.516Z,28.30
2023-04-18T08:17:11.146Z,26.30
2023-04-18T08:19:40.253Z,27.77
2023-04-18T08:22:10.017Z,27.30
2023-04-18T08:24:38.867Z,26.13
2023-04-18T08:27:06.644Z,25.25
2023-04-18T08:29:34.500Z,25.45
2023-04-18T08:32:02.328Z,25.48
2023-04-18T08:34:30.044Z,25.48
2023-04-18T08:36:59.033Z,24.45
2023-04-18T08:39:26.732Z,24.48
2023-04-18T08:41:58.913Z,23.45
2023-04-18T08:46:54.679Z,22.92
2023-04-18T08:49:22.794Z,21.70
2023-04-18T08:51:51.883Z,21.63
2023-04-18T08:54:22.404Z,21.65
2023-04-18T08:57:04.768Z,22.67
2023-04-18T09:02:01.561Z,20.58
2023-04-18T09:04:35.169Z,20.40
2023-04-18T09:07:03.467Z,20.30
2023-04-18T09:09:43.249Z,21.20
2023-04-18T09:12:14.424Z,20.50
2023-04-18T09:14:45.752Z,20.40
2023-04-18T09:17:14.541Z,20.40
2023-04-18T09:19:48.757Z,20.08
2023-04-18T09:22:17.020Z,19.75
2023-04-18T09:24:54.206Z,19.67
2023-04-18T09:27:23.853Z,19.67
2023-04-18T09:29:52.694Z,20.38
2023-04-18T09:32:25.027Z,20.25
2023-04-18T09:34:57.980Z,19.98
2023-04-18T09:37:26.624Z,19.58
2023-04-18T09:39:56.113Z,20.88
2023-04-18T09:42:25.059Z,20.50
2023-04-18T09:45:03.652Z,21.08
2023-04-18T09:47:32.277Z,20.50
2023-04-18T09:49:59.924Z,20.55
2023-04-18T09:52:27.618Z,21.58
2023-04-18T09:55:01.056Z,19.02
2023-04-18T09:57:30.156Z,20.83
2023-04-18T10:00:03.034Z,20.42
2023-04-18T10:02:35.830Z,21.38
2023-04-18T10:05:05.902Z,21.35
2023-04-18T10:07:33.886Z,21.23
2023-04-18T10:10:02.872Z,22.77
2023-04-18T10:12:30.589Z,21.20
2023-04-18T10:14:58.307Z,23.50
2023-04-18T10:17:29.420Z,21.45
2023-04-18T10:20:10.279Z,20.95
2023-04-18T10:22:37.928Z,19.73
2023-04-18T10:25:08.152Z,18.50
2023-04-18T10:27:59.883Z,20.90
2023-04-18T10:30:56.320Z,18.73
2023-04-18T10:33:34.651Z,20.35
2023-04-18T10:36:14.851Z,19.58
2023-04-18T10:38:46.975Z,19.35
2023-04-18T10:44:18.234Z,18.88
2023-04-18T10:47:32.224Z,19.73
2023-04-18T10:50:06.965Z,18.67
2023-04-18T10:52:35.809Z,18.70
2023-04-18T10:55:24.496Z,18.52
2023-04-18T10:57:56.114Z,19.50
2023-04-18T11:00:24.657Z,19.42
2023-04-18T11:02:55.912Z,18.42
2023-04-18T11:05:25.842Z,19.90
2023-04-18T11:07:53.997Z,17.42
2023-04-18T11:10:23.799Z,18.92
2023-04-18T11:12:53.680Z,18.60
2023-04-18T11:15:23.340Z,17.95
2023-04-18T11:17:58.820Z,17.75
2023-04-18T11:20:26.852Z,16.85
2023-04-18T11:22:55.659Z,19.73
2023-04-18T11:25:26.055Z,18.02
2023-04-18T11:27:55.884Z,18.25
2023-04-18T11:30:23.608Z,17.00
2023-04-18T11:32:51.690Z,19.00
2023-04-18T11:35:19.517Z,17.75
2023-04-18T11:37:47.225Z,18.80
2023-04-18T11:40:15.398Z,18.50
2023-04-18T11:42:43.369Z,18.88
2023-04-18T11:45:13.729Z,18.63
2023-04-18T11:47:43.063Z,18.67
2023-04-18T11:50:11.972Z,18.02
2023-04-18T11:52:41.562Z,18.08
2023-04-18T11:55:14.542Z,19.33
2023-04-18T11:57:42.542Z,18.52
2023-04-18T12:00:13.498Z,17.90
2023-04-18T12:02:43.578Z,18.17
2023-04-18T12:05:12.157Z,18.52
2023-04-18T12:07:41.291Z,18.10
2023-04-18T12:10:10.799Z,19.42
2023-04-18T12:12:38.508Z,18.75
2023-04-18T12:15:08.401Z,18.55
2023-04-18T12:17:39.036Z,17.55
2023-04-18T12:20:09.937Z,18.17
2023-04-18T12:22:42.976Z,17.52
2023-04-18T12:25:23.547Z,17.50
2023-04-18T12:27:55.014Z,18.17
2023-04-18T12:30:23.973Z,16.98
2023-04-18T12:32:54.205Z,16.15
2023-04-18T12:35:22.496Z,17.83
2023-04-18T12:37:51.352Z,16.75
2023-04-18T12:40:19.915Z,15.50
2023-04-18T12:42:48.236Z,16.48
2023-04-18T12:45:16.656Z,16.55
2023-04-18T12:47:45.904Z,16.15
2023-04-18T12:50:18.892Z,16.38
2023-04-18T12:52:47.314Z,15.75
2023-04-18T12:55:15.602Z,14.73
2023-04-18T12:57:43.866Z,15.57
2023-04-18T13:00:13.558Z,16.42
2023-04-18T13:02:42.991Z,15.55
2023-04-18T13:05:12.170Z,15.90
2023-04-18T13:07:42.430Z,15.90
2023-04-18T13:10:11.940Z,15.43
2023-04-18T13:12:40.179Z,15.55
2023-04-18T13:15:08.768Z,14.57
2023-04-18T13:17:37.290Z,14.15
2023-04-18T13:20:06.524Z,14.48
2023-04-18T13:22:34.524Z,14.07
2023-04-18T13:25:03.997Z,15.85
2023-04-18T13:27:31.649Z,14.48
2023-04-18T13:29:59.360Z,15.18
2023-04-18T13:32:27.396Z,15.02
2023-04-18T13:34:56.131Z,16.25
2023-04-18T13:37:24.042Z,14.55
2023-04-18T13:39:51.744Z,15.98
2023-04-18T13:42:21.094Z,14.98
2023-04-18T13:44:49.519Z,15.60
2023-04-18T13:47:17.511Z,15.48
2023-04-18T13:49:45.181Z,14.85
2023-04-18T13:52:12.864Z,14.68
2023-04-18T13:54:41.365Z,15.13
2023-04-18T13:57:11.663Z,13.80
2023-04-18T13:59:40.960Z,16.70
2023-04-18T14:02:09.224Z,15.25
2023-04-18T14:04:37.460Z,15.63
2023-04-18T14:07:06.207Z,15.10
2023-04-18T14:09:34.232Z,15.60
2023-04-18T14:12:02.022Z,15.48
2023-04-18T14:14:29.752Z,18.33
2023-04-18T14:16:58.801Z,15.65
2023-04-18T14:19:27.537Z,16.10
2023-04-18T14:21:55.207Z,15.63
2023-04-18T14:24:22.854Z,14.98
2023-04-18T14:26:50.517Z,14.75
2023-04-18T14:29:18.163Z,15.68
2023-04-18T14:31:46.086Z,14.98
2023-04-18T14:34:15.377Z,15.52
2023-04-18T14:36:43.023Z,14.85
2023-04-18T14:39:11.065Z,14.90
2023-04-18T14:41:38.900Z,15.52
2023-04-18T14:44:06.575Z,14.27
2023-04-18T14:46:34.321Z,14.27
2023-04-18T14:49:01.989Z,15.15
2023-04-18T14:51:31.211Z,18.65
2023-04-18T14:53:58.846Z,15.63
2023-04-18T14:56:26.552Z,14.45
2023-04-18T14:58:54.180Z,14.35
2023-04-18T15:01:21.970Z,15.65
2023-04-18T15:03:51.391Z,13.57
2023-04-18T15:06:19.238Z,13.15
2023-04-18T15:08:48.285Z,14.23
2023-04-18T15:11:15.950Z,14.40
2023-04-18T15:13:44.488Z,15.52
2023-04-18T15:16:12.533Z,14.15
2023-04-18T15:18:40.211Z,13.80
2023-04-18T15:21:07.780Z,13.93
2023-04-18T15:23:35.557Z,14.15
2023-04-18T15:26:04.644Z,15.55
2023-04-18T15:28:32.343Z,14.43
2023-04-18T15:31:00.009Z,14.45
2023-04-18T15:33:28.246Z,14.68
2023-04-18T15:35:56.535Z,14.63
2023-04-18T15:38:24.199Z,14.27
2023-04-18T15:40:51.853Z,14.50
2023-04-18T15:43:20.994Z,13.52
2023-04-18T15:45:48.956Z,13.75
2023-04-18T15:48:16.595Z,13.57
2023-04-18T15:50:44.231Z,13.10
2023-04-18T15:53:11.905Z,13.20
2023-04-18T15:55:39.683Z,14.73
2023-04-18T15:58:07.603Z,15.32
2023-04-18T16:00:36.605Z,15.20
2023-04-18T16:03:04.757Z,15.50
2023-04-18T16:05:32.561Z,16.00
2023-04-18T16:08:01.239Z,16.58
2023-04-18T16:10:28.966Z,18.10
2023-04-18T16:12:56.609Z,17.75
2023-04-18T16:15:24.269Z,17.05
2023-04-18T16:17:53.382Z,16.80
2023-04-18T16:20:21.281Z,17.17
2023-04-18T16:22:49.140Z,16.55
2023-04-18T16:25:16.755Z,18.35
2023-04-18T16:27:44.687Z,18.75
2023-04-18T16:30:13.265Z,16.70
2023-04-18T16:32:40.997Z,16.63
2023-04-18T16:35:11.142Z,16.83
2023-04-18T16:37:38.979Z,16.55
2023-04-18T16:40:09.794Z,16.40
2023-04-18T16:42:37.831Z,16.92
2023-04-18T16:45:06.165Z,18.55
2023-04-18T16:47:34.330Z,15.55
2023-04-18T16:50:02.027Z,15.73
2023-04-18T16:52:31.881Z,16.80
2023-04-18T16:54:59.542Z,15.48
2023-04-18T16:57:27.225Z,16.23
2023-04-18T16:59:54.886Z,15.52
2023-04-18T17:02:22.752Z,15.68
2023-04-18T17:04:51.346Z,16.02
2023-04-18T17:07:19.459Z,17.08
2023-04-18T17:09:51.157Z,16.02
2023-04-18T17:12:19.031Z,15.65
2023-04-18T17:14:46.688Z,17.27
2023-04-18T17:17:14.334Z,15.63
2023-04-18T17:19:41.987Z,15.52
2023-04-18T17:22:09.730Z,15.02
2023-04-18T17:24:37.525Z,15.35
2023-04-18T17:27:06.638Z,16.38
2023-04-18T17:29:34.409Z,13.88
2023-04-18T17:32:02.212Z,13.93
2023-04-18T17:34:29.903Z,15.20
2023-04-18T17:36:57.625Z,15.00
2023-04-18T17:39:25.271Z,15.23
2023-04-18T17:41:53.311Z,16.85
2023-04-18T17:44:22.305Z,15.70
2023-04-18T17:46:50.678Z,14.95
2023-04-18T17:49:18.398Z,15.25
2023-04-18T17:51:46.072Z,15.23
2023-04-18T17:54:14.023Z,14.52
2023-04-18T17:56:41.768Z,15.70
2023-04-18T17:59:09.859Z,15.23
2023-04-18T18:01:39.040Z,14.98
2023-04-18T18:04:06.898Z,14.15
2023-04-18T18:06:34.675Z,16.08
2023-04-18T18:09:02.333Z,13.35
2023-04-18T18:11:29.968Z,15.38
2023-04-18T18:13:57.629Z,14.55
2023-04-18T18:16:25.334Z,14.80
2023-04-18T18:18:54.647Z,14.30
2023-04-18T18:21:22.360Z,14.93
2023-04-18T18:23:50.055Z,14.27
2023-04-18T18:26:17.688Z,14.52
2023-04-18T18:28:45.314Z,14.48
2023-04-18T18:31:12.941Z,14.52
2023-04-18T18:33:40.638Z,14.27
2023-04-18T18:36:09.644Z,13.95
2023-04-18T18:38:37.489Z,14.25
2023-04-18T18:41:05.648Z,14.63
2023-04-18T18:43:33.304Z,15.88
2023-04-18T18:46:01.081Z,13.80
2023-04-18T18:48:29.120Z,14.15
2023-04-18T18:50:57.274Z,14.25
2023-04-18T18:53:26.366Z,14.27
2023-04-18T18:55:54.003Z,14.52
2023-04-18T18:58:21.723Z,14.75
2023-04-18T19:00:51.093Z,14.68
2023-04-18T19:03:21.055Z,14.13
2023-04-18T19:05:48.883Z,14.82
2023-04-18T19:08:16.506Z,14.50
2023-04-18T19:10:45.489Z,15.90
2023-04-18T19:13:13.212Z,16.85
2023-04-18T19:15:41.232Z,18.35
2023-04-18T19:18:09.015Z,16.80
2023-04-18T19:20:38.794Z,17.73
2023-04-18T19:23:06.419Z,16.30
2023-04-18T19:25:34.172Z,14.73
2023-04-18T19:28:04.849Z,15.38
2023-04-18T19:30:32.534Z,15.20
2023-04-18T19:33:00.288Z,15.07
2023-04-18T19:35:28.433Z,16.38
2023-04-18T19:38:01.421Z,15.45
2023-04-18T19:40:29.092Z,16.40
2023-04-18T19:42:56.769Z,16.27
2023-04-18T19:45:25.964Z,15.93
2023-04-18T19:47:53.642Z,15.55
2023-04-18T19:50:21.383Z,16.17
2023-04-18T19:52:49.012Z,15.98
2023-04-18T19:55:16.746Z,15.98
2023-04-18T19:57:44.409Z,16.80
2023-04-18T20:00:13.902Z,15.70
2023-04-18T20:02:43.172Z,17.48
2023-04-18T20:05:11.416Z,16.02
2023-04-18T20:07:39.461Z,17.17
2023-04-18T20:10:08.878Z,16.77
2023-04-18T20:12:36.586Z,17.95
2023-04-18T20:15:05.281Z,16.77
2023-04-18T20:17:34.678Z,16.23
2023-04-18T20:20:04.578Z,17.10
2023-04-18T20:22:34.175Z,16.98
2023-04-18T20:25:01.861Z,16.40
2023-04-18T20:27:29.562Z,16.58
2023-04-18T20:29:57.526Z,17.10
2023-04-18T20:32:25.349Z,16.92
2023-04-18T20:34:53.549Z,17.73
2023-04-18T20:37:22.661Z,17.20
2023-04-18T20:39:50.321Z,15.98
2023-04-18T20:42:18.631Z,17.08
2023-04-18T20:44:46.691Z,18.00
2023-04-18T20:47:15.761Z,16.98
2023-04-18T20:49:43.671Z,18.00
2023-04-18T20:52:11.336Z,17.38
2023-04-18T20:54:41.470Z,17.25
2023-04-18T20:57:09.320Z,18.10
2023-04-18T20:59:36.973Z,18.75
2023-04-18T21:02:04.823Z,17.40
2023-04-18T21:04:32.652Z,18.77
2023-04-18T21:07:00.547Z,18.33
2023-04-18T21:09:28.288Z,17.65
2023-04-18T21:11:58.414Z,18.30
2023-04-18T21:14:28.873Z,17.65
2023-04-18T21:16:57.097Z,18.27
2023-04-18T21:19:25.300Z,18.45
2023-04-18T21:21:52.980Z,17.80
2023-04-18T21:24:20.587Z,18.27
2023-04-18T21:26:48.257Z,17.45
2023-04-18T21:29:17.273Z,17.63
2023-04-18T21:31:45.248Z,17.58
2023-04-18T21:34:13.010Z,19.00
2023-04-18T21:36:41.034Z,19.08
2023-04-18T21:39:09.860Z,18.50
2023-04-18T21:41:37.563Z,18.60
2023-04-18T21:44:05.316Z,18.65
2023-04-18T21:46:34.370Z,18.63
2023-04-18T21:49:02.026Z,21.13
2023-04-18T21:51:29.717Z,20.00
2023-04-18T21:53:57.395Z,20.30
2023-04-18T21:56:25.052Z,20.05
2023-04-18T21:58:52.659Z,19.98
2023-04-18T22:01:20.329Z,20.35
2023-04-18T22:03:49.761Z,20.60
2023-04-18T22:06:17.518Z,20.88
2023-04-18T22:08:45.195Z,19.85
2023-04-18T22:11:13.573Z,21.17
2023-04-18T22:13:44.574Z,22.25
2023-04-18T22:16:12.655Z,21.67
2023-04-18T22:18:40.317Z,21.05
2023-04-18T22:21:10.449Z,22.08
2023-04-18T22:23:38.119Z,21.25
2023-04-18T22:26:05.840Z,20.23
2023-04-18T22:28:33.938Z,21.00
2023-04-18T22:31:01.685Z,20.75
2023-04-18T22:33:29.597Z,20.40
2023-04-18T22:35:57.343Z,19.50
2023-04-18T22:38:27.260Z,19.30
2023-04-18T22:40:54.923Z,21.13
2023-04-18T22:43:24.325Z,21.00
2023-04-18T22:45:52.416Z,21.05
2023-04-18T22:48:20.126Z,20.92
2023-04-18T22:50:47.794Z,20.65
2023-04-18T22:53:15.947Z,20.95
2023-04-18T22:55:45.805Z,20.83
2023-04-18T22:58:14.220Z,20.58
2023-04-18T23:00:41.865Z,19.77
2023-04-18T23:03:09.575Z,20.25
2023-04-18T23:05:37.354Z,20.85
2023-04-18T23:08:06.844Z,19.90
2023-04-18T23:10:34.910Z,19.67
2023-04-18T23:13:03.924Z,20.80
2023-04-18T23:15:31.577Z,20.05
2023-04-18T23:17:59.319Z,20.27
2023-04-18T23:20:27.054Z,20.58
2023-04-18T23:22:55.875Z,19.92
2023-04-18T23:25:23.509Z,20.10
2023-04-18T23:27:51.133Z,20.10
2023-04-18T23:30:20.247Z,20.17
2023-04-18T23:32:47.957Z,20.80
2023-04-18T23:35:15.667Z,20.77
2023-04-18T23:37:43.604Z,19.90
2023-04-18T23:40:11.349Z,21.05
2023-04-18T23:42:39.002Z,20.67
2023-04-18T23:45:07.436Z,20.75
2023-04-18T23:47:36.483Z,20.58
2023-04-18T23:50:04.345Z,19.65
2023-04-18T23:52:32.016Z,20.70
2023-04-18T23:55:00.575Z,20.17
2023-04-18T23:57:28.351Z,20.20
2023-04-18T23:59:56.007Z,20.05
